KUYF

Details ICAO KUYF
Name MADISON CO
Region United States
Timezone America/New_York (UTC-5.0)
Plans Departing 2
Arriving 3
Stats Elevation 1,081 ft / 329 m (AMSL)
Location 39.932713° -83.461993°
Runways 1
Magnetic Variation 6.771° W
Sunrise 2017-12-16 12:50:35 UTC / 2017-12-16 07:50:35 Local
Sunset 2017-12-16 22:11:22 UTC / 2017-12-16 17:11:22 Local
Advertisement - Login to hide

Runways

ID Width Length Bearing (true) Bearing (mag) Surface Threshold Offset Overrun Length
09 75 ft / 23 m 3,992 ft / 1,217 m 86.60° 93.37° Asphalt 0 ft / 0 m 0 ft / 0 m
27 75 ft / 23 m 3,992 ft / 1,217 m 266.61° 273.38° Asphalt 0 ft / 0 m 0 ft / 0 m

Map

Weather


0- 5 10 15 20 25 30 35+ Temperature / ° C

Clouds and Precipitation
Forecast for 2017-12-16 18:00 UTC. Updated 4 minutes ago

Ground ~20,000 ft ~40,000 ft Winds

METAR

KUYF 161315Z AUTO 21013KT 10SM OVC095 01/M03 A3002 RMK AO2

TAF

Not found

Frequencies

Unicom 123.00 MHz CTAF/UNICOM
Departure 126.50 MHz DAYTON DEP
Approach 118.85 MHz DAYTON APP
Warning: Do not use this data for real-world aviation or navigation. No guarantee of current accuracy is given.